sensor_id;sensor_type;location;lat;lon;timestamp;P1;durP1;ratioP1;P2;durP2;ratioP2
75048;SDS011;63803;53.120;8.764;2023-02-26T00:01:01;0.90;;;0.60;;
75048;SDS011;63803;53.120;8.764;2023-02-26T00:03:35;0.55;;;0.50;;
75048;SDS011;63803;53.120;8.764;2023-02-26T00:06:01;0.95;;;0.47;;
75048;SDS011;63803;53.120;8.764;2023-02-26T00:08:26;1.38;;;0.70;;
75048;SDS011;63803;53.120;8.764;2023-02-26T00:10:52;0.55;;;0.40;;
75048;SDS011;63803;53.120;8.764;2023-02-26T00:13:19;0.82;;;0.50;;
75048;SDS011;63803;53.120;8.764;2023-02-26T00:15:45;0.98;;;0.73;;
75048;SDS011;63803;53.120;8.764;2023-02-26T00:18:12;1.13;;;0.63;;
75048;SDS011;63803;53.120;8.764;2023-02-26T00:20:40;0.95;;;0.47;;
75048;SDS011;63803;53.120;8.764;2023-02-26T00:23:10;1.15;;;0.60;;
75048;SDS011;63803;53.120;8.764;2023-02-26T00:25:38;0.88;;;0.50;;
75048;SDS011;63803;53.120;8.764;2023-02-26T00:28:04;3.13;;;0.70;;
75048;SDS011;63803;53.120;8.764;2023-02-26T00:30:30;1.88;;;0.50;;
75048;SDS011;63803;53.120;8.764;2023-02-26T00:32:55;0.75;;;0.60;;
75048;SDS011;63803;53.120;8.764;2023-02-26T00:35:21;2.13;;;0.63;;
75048;SDS011;63803;53.120;8.764;2023-02-26T00:38:01;0.70;;;0.55;;
75048;SDS011;63803;53.120;8.764;2023-02-26T00:43:08;1.83;;;0.70;;
75048;SDS011;63803;53.120;8.764;2023-02-26T00:46:14;1.38;;;0.55;;
75048;SDS011;63803;53.120;8.764;2023-02-26T00:51:43;1.75;;;0.57;;
75048;SDS011;63803;53.120;8.764;2023-02-26T00:56:47;1.45;;;0.80;;
75048;SDS011;63803;53.120;8.764;2023-02-26T00:59:13;0.90;;;0.50;;
75048;SDS011;63803;53.120;8.764;2023-02-26T01:01:40;0.57;;;0.50;;
75048;SDS011;63803;53.120;8.764;2023-02-26T01:04:06;1.70;;;0.73;;
75048;SDS011;63803;53.120;8.764;2023-02-26T01:06:32;1.48;;;0.60;;
75048;SDS011;63803;53.120;8.764;2023-02-26T01:11:29;0.95;;;0.60;;
75048;SDS011;63803;53.120;8.764;2023-02-26T01:13:55;3.97;;;0.60;;
75048;SDS011;63803;53.120;8.764;2023-02-26T01:16:23;0.95;;;0.57;;
75048;SDS011;63803;53.120;8.764;2023-02-26T01:18:53;0.77;;;0.63;;
75048;SDS011;63803;53.120;8.764;2023-02-26T01:21:34;1.17;;;0.68;;
75048;SDS011;63803;53.120;8.764;2023-02-26T01:24:04;0.50;;;0.40;;
75048;SDS011;63803;53.120;8.764;2023-02-26T01:26:33;2.17;;;0.70;;
75048;SDS011;63803;53.120;8.764;2023-02-26T01:28:58;1.00;;;0.60;;
75048;SDS011;63803;53.120;8.764;2023-02-26T01:34:41;1.27;;;0.80;;
75048;SDS011;63803;53.120;8.764;2023-02-26T01:37:35;1.67;;;0.60;;
75048;SDS011;63803;53.120;8.764;2023-02-26T01:42:42;2.15;;;0.60;;
75048;SDS011;63803;53.120;8.764;2023-02-26T01:45:17;0.63;;;0.60;;
75048;SDS011;63803;53.120;8.764;2023-02-26T01:47:52;0.97;;;0.67;;
75048;SDS011;63803;53.120;8.764;2023-02-26T01:50:23;0.55;;;0.50;;
75048;SDS011;63803;53.120;8.764;2023-02-26T01:55:37;0.98;;;0.40;;
75048;SDS011;63803;53.120;8.764;2023-02-26T01:58:07;1.55;;;0.60;;
75048;SDS011;63803;53.120;8.764;2023-02-26T02:00:32;2.20;;;0.90;;
75048;SDS011;63803;53.120;8.764;2023-02-26T02:02:57;1.63;;;0.40;;
75048;SDS011;63803;53.120;8.764;2023-02-26T02:05:24;0.90;;;0.70;;
75048;SDS011;63803;53.120;8.764;2023-02-26T02:07:56;1.08;;;0.50;;
75048;SDS011;63803;53.120;8.764;2023-02-26T02:10:22;1.40;;;0.50;;
75048;SDS011;63803;53.120;8.764;2023-02-26T02:12:54;0.50;;;0.40;;
75048;SDS011;63803;53.120;8.764;2023-02-26T02:15:44;1.42;;;0.55;;
75048;SDS011;63803;53.120;8.764;2023-02-26T02:37:42;1.60;;;0.63;;
75048;SDS011;63803;53.120;8.764;2023-02-26T02:40:17;2.05;;;0.45;;
75048;SDS011;63803;53.120;8.764;2023-02-26T02:43:32;6.50;;;0.60;;
75048;SDS011;63803;53.120;8.764;2023-02-26T02:48:05;0.38;;;0.38;;
75048;SDS011;63803;53.120;8.764;2023-02-26T02:50:37;2.70;;;0.63;;
75048;SDS011;63803;53.120;8.764;2023-02-26T02:53:16;1.05;;;0.52;;
75048;SDS011;63803;53.120;8.764;2023-02-26T02:56:11;0.43;;;0.40;;
75048;SDS011;63803;53.120;8.764;2023-02-26T02:58:38;1.00;;;0.50;;
75048;SDS011;63803;53.120;8.764;2023-02-26T03:01:10;1.15;;;0.45;;
75048;SDS011;63803;53.120;8.764;2023-02-26T03:06:14;3.45;;;0.60;;
75048;SDS011;63803;53.120;8.764;2023-02-26T03:08:42;3.10;;;0.80;;
75048;SDS011;63803;53.120;8.764;2023-02-26T03:11:09;1.08;;;0.43;;
75048;SDS011;63803;53.120;8.764;2023-02-26T03:13:35;0.68;;;0.50;;
75048;SDS011;63803;53.120;8.764;2023-02-26T03:16:08;1.80;;;0.80;;
75048;SDS011;63803;53.120;8.764;2023-02-26T03:21:55;0.60;;;0.30;;
75048;SDS011;63803;53.120;8.764;2023-02-26T03:24:35;1.85;;;0.73;;
75048;SDS011;63803;53.120;8.764;2023-02-26T03:32:07;1.13;;;0.60;;
75048;SDS011;63803;53.120;8.764;2023-02-26T03:34:49;1.23;;;0.50;;
75048;SDS011;63803;53.120;8.764;2023-02-26T03:37:33;0.77;;;0.50;;
75048;SDS011;63803;53.120;8.764;2023-02-26T03:40:05;0.80;;;0.50;;
75048;SDS011;63803;53.120;8.764;2023-02-26T03:42:45;0.43;;;0.40;;
75048;SDS011;63803;53.120;8.764;2023-02-26T03:45:20;1.02;;;0.68;;
75048;SDS011;63803;53.120;8.764;2023-02-26T03:47:51;1.90;;;0.60;;
75048;SDS011;63803;53.120;8.764;2023-02-26T03:52:46;0.85;;;0.50;;
75048;SDS011;63803;53.120;8.764;2023-02-26T03:55:15;0.80;;;0.52;;
75048;SDS011;63803;53.120;8.764;2023-02-26T03:57:43;1.15;;;0.47;;
75048;SDS011;63803;53.120;8.764;2023-02-26T04:00:10;2.33;;;0.50;;
75048;SDS011;63803;53.120;8.764;2023-02-26T04:02:47;1.88;;;0.65;;
75048;SDS011;63803;53.120;8.764;2023-02-26T04:05:21;2.90;;;0.60;;
75048;SDS011;63803;53.120;8.764;2023-02-26T04:07:50;1.02;;;0.50;;
75048;SDS011;63803;53.120;8.764;2023-02-26T04:10:17;1.33;;;0.60;;
75048;SDS011;63803;53.120;8.764;2023-02-26T04:12:46;3.65;;;0.70;;
75048;SDS011;63803;53.120;8.764;2023-02-26T04:15:12;1.50;;;0.47;;
75048;SDS011;63803;53.120;8.764;2023-02-26T04:17:37;0.88;;;0.40;;
75048;SDS011;63803;53.120;8.764;2023-02-26T04:20:04;0.60;;;0.47;;
75048;SDS011;63803;53.120;8.764;2023-02-26T04:22:36;0.50;;;0.30;;
75048;SDS011;63803;53.120;8.764;2023-02-26T04:25:02;1.85;;;0.57;;
75048;SDS011;63803;53.120;8.764;2023-02-26T04:27:28;0.77;;;0.45;;
75048;SDS011;63803;53.120;8.764;2023-02-26T04:29:53;2.60;;;0.50;;
75048;SDS011;63803;53.120;8.764;2023-02-26T04:32:18;1.00;;;0.65;;
75048;SDS011;63803;53.120;8.764;2023-02-26T04:34:44;3.35;;;0.75;;
75048;SDS011;63803;53.120;8.764;2023-02-26T04:37:09;1.80;;;0.50;;
75048;SDS011;63803;53.120;8.764;2023-02-26T04:39:35;2.20;;;0.60;;
75048;SDS011;63803;53.120;8.764;2023-02-26T04:42:00;0.40;;;0.40;;
75048;SDS011;63803;53.120;8.764;2023-02-26T04:44:28;1.08;;;0.60;;
75048;SDS011;63803;53.120;8.764;2023-02-26T04:46:54;0.52;;;0.47;;
75048;SDS011;63803;53.120;8.764;2023-02-26T04:49:19;0.55;;;0.30;;
75048;SDS011;63803;53.120;8.764;2023-02-26T04:51:45;2.08;;;0.60;;
75048;SDS011;63803;53.120;8.764;2023-02-26T04:54:10;1.10;;;0.50;;
75048;SDS011;63803;53.120;8.764;2023-02-26T04:56:36;2.15;;;0.57;;
75048;SDS011;63803;53.120;8.764;2023-02-26T04:59:01;1.27;;;0.60;;
75048;SDS011;63803;53.120;8.764;2023-02-26T05:01:26;0.82;;;0.43;;
75048;SDS011;63803;53.120;8.764;2023-02-26T05:03:52;0.95;;;0.55;;
75048;SDS011;63803;53.120;8.764;2023-02-26T05:06:17;1.45;;;0.50;;
75048;SDS011;63803;53.120;8.764;2023-02-26T05:08:43;0.80;;;0.45;;
75048;SDS011;63803;53.120;8.764;2023-02-26T05:11:09;0.95;;;0.50;;
75048;SDS011;63803;53.120;8.764;2023-02-26T05:13:35;2.13;;;0.50;;
75048;SDS011;63803;53.120;8.764;2023-02-26T05:16:00;3.03;;;0.50;;
75048;SDS011;63803;53.120;8.764;2023-02-26T05:18:26;0.85;;;0.47;;
75048;SDS011;63803;53.120;8.764;2023-02-26T05:20:52;1.52;;;0.70;;
75048;SDS011;63803;53.120;8.764;2023-02-26T05:23:18;1.00;;;0.55;;
75048;SDS011;63803;53.120;8.764;2023-02-26T05:25:44;2.20;;;0.40;;
75048;SDS011;63803;53.120;8.764;2023-02-26T05:28:10;1.00;;;0.40;;
75048;SDS011;63803;53.120;8.764;2023-02-26T05:30:35;1.17;;;0.57;;
75048;SDS011;63803;53.120;8.764;2023-02-26T05:33:01;1.15;;;0.40;;
75048;SDS011;63803;53.120;8.764;2023-02-26T05:35:26;1.05;;;0.60;;
75048;SDS011;63803;53.120;8.764;2023-02-26T05:37:52;0.88;;;0.40;;
75048;SDS011;63803;53.120;8.764;2023-02-26T05:40:17;3.92;;;0.47;;
75048;SDS011;63803;53.120;8.764;2023-02-26T05:42:43;0.93;;;0.50;;
75048;SDS011;63803;53.120;8.764;2023-02-26T05:45:09;1.23;;;0.60;;
75048;SDS011;63803;53.120;8.764;2023-02-26T05:47:35;1.75;;;0.40;;
75048;SDS011;63803;53.120;8.764;2023-02-26T05:50:01;2.80;;;0.50;;
75048;SDS011;63803;53.120;8.764;2023-02-26T05:52:27;1.10;;;0.35;;
75048;SDS011;63803;53.120;8.764;2023-02-26T05:54:52;0.75;;;0.40;;
75048;SDS011;63803;53.120;8.764;2023-02-26T05:57:18;2.40;;;0.35;;
75048;SDS011;63803;53.120;8.764;2023-02-26T05:59:43;1.00;;;0.40;;
75048;SDS011;63803;53.120;8.764;2023-02-26T06:02:08;0.77;;;0.38;;
75048;SDS011;63803;53.120;8.764;2023-02-26T06:04:34;4.35;;;0.45;;
75048;SDS011;63803;53.120;8.764;2023-02-26T06:07:00;1.08;;;0.30;;
75048;SDS011;63803;53.120;8.764;2023-02-26T06:09:26;1.27;;;0.32;;
75048;SDS011;63803;53.120;8.764;2023-02-26T06:11:52;0.40;;;0.32;;
75048;SDS011;63803;53.120;8.764;2023-02-26T06:14:17;0.40;;;0.32;;
75048;SDS011;63803;53.120;8.764;2023-02-26T06:16:42;0.63;;;0.38;;
75048;SDS011;63803;53.120;8.764;2023-02-26T06:19:08;1.20;;;0.40;;
75048;SDS011;63803;53.120;8.764;2023-02-26T06:21:33;1.58;;;0.40;;
75048;SDS011;63803;53.120;8.764;2023-02-26T06:23:59;2.85;;;0.40;;
75048;SDS011;63803;53.120;8.764;2023-02-26T06:26:24;3.67;;;0.47;;
75048;SDS011;63803;53.120;8.764;2023-02-26T06:28:50;4.05;;;0.50;;
75048;SDS011;63803;53.120;8.764;2023-02-26T06:31:15;6.00;;;0.43;;
75048;SDS011;63803;53.120;8.764;2023-02-26T06:33:40;0.35;;;0.30;;
75048;SDS011;63803;53.120;8.764;2023-02-26T06:36:06;3.13;;;0.40;;
75048;SDS011;63803;53.120;8.764;2023-02-26T06:38:32;1.40;;;0.50;;
75048;SDS011;63803;53.120;8.764;2023-02-26T06:40:58;0.35;;;0.20;;
75048;SDS011;63803;53.120;8.764;2023-02-26T06:43:23;1.55;;;0.45;;
75048;SDS011;63803;53.120;8.764;2023-02-26T06:45:49;2.05;;;0.50;;
75048;SDS011;63803;53.120;8.764;2023-02-26T06:48:15;2.45;;;0.43;;
75048;SDS011;63803;53.120;8.764;2023-02-26T06:50:40;0.50;;;0.50;;
75048;SDS011;63803;53.120;8.764;2023-02-26T06:53:06;0.40;;;0.38;;
75048;SDS011;63803;53.120;8.764;2023-02-26T06:55:32;2.45;;;0.45;;
75048;SDS011;63803;53.120;8.764;2023-02-26T06:57:57;3.47;;;0.60;;
75048;SDS011;63803;53.120;8.764;2023-02-26T07:00:23;2.17;;;0.55;;
75048;SDS011;63803;53.120;8.764;2023-02-26T07:02:50;0.70;;;0.40;;
75048;SDS011;63803;53.120;8.764;2023-02-26T07:05:16;1.80;;;0.57;;
75048;SDS011;63803;53.120;8.764;2023-02-26T07:07:43;0.70;;;0.30;;
75048;SDS011;63803;53.120;8.764;2023-02-26T07:10:10;1.58;;;0.60;;
75048;SDS011;63803;53.120;8.764;2023-02-26T07:12:36;0.30;;;0.28;;
75048;SDS011;63803;53.120;8.764;2023-02-26T07:15:03;2.75;;;0.68;;
75048;SDS011;63803;53.120;8.764;2023-02-26T07:17:31;2.67;;;0.35;;
75048;SDS011;63803;53.120;8.764;2023-02-26T07:19:57;2.28;;;0.50;;
75048;SDS011;63803;53.120;8.764;2023-02-26T07:22:22;1.00;;;0.57;;
75048;SDS011;63803;53.120;8.764;2023-02-26T07:24:48;1.38;;;0.47;;
75048;SDS011;63803;53.120;8.764;2023-02-26T07:27:14;0.88;;;0.57;;
75048;SDS011;63803;53.120;8.764;2023-02-26T07:29:39;2.15;;;0.95;;
75048;SDS011;63803;53.120;8.764;2023-02-26T07:32:05;1.75;;;0.40;;
75048;SDS011;63803;53.120;8.764;2023-02-26T07:34:30;1.85;;;0.35;;
75048;SDS011;63803;53.120;8.764;2023-02-26T07:36:56;1.60;;;0.55;;
75048;SDS011;63803;53.120;8.764;2023-02-26T07:39:23;0.57;;;0.32;;
75048;SDS011;63803;53.120;8.764;2023-02-26T07:41:49;2.47;;;0.32;;
75048;SDS011;63803;53.120;8.764;2023-02-26T07:44:14;4.30;;;0.40;;
75048;SDS011;63803;53.120;8.764;2023-02-26T07:46:40;1.55;;;0.40;;
75048;SDS011;63803;53.120;8.764;2023-02-26T07:49:05;2.88;;;0.45;;
75048;SDS011;63803;53.120;8.764;2023-02-26T07:51:31;0.80;;;0.35;;
75048;SDS011;63803;53.120;8.764;2023-02-26T07:53:56;0.70;;;0.30;;
75048;SDS011;63803;53.120;8.764;2023-02-26T07:56:22;1.25;;;0.50;;
75048;SDS011;63803;53.120;8.764;2023-02-26T07:58:47;3.30;;;0.75;;
75048;SDS011;63803;53.120;8.764;2023-02-26T08:01:13;1.02;;;0.30;;
75048;SDS011;63803;53.120;8.764;2023-02-26T08:03:38;1.35;;;0.63;;
75048;SDS011;63803;53.120;8.764;2023-02-26T08:06:04;1.35;;;0.63;;
75048;SDS011;63803;53.120;8.764;2023-02-26T08:08:30;0.55;;;0.43;;
75048;SDS011;63803;53.120;8.764;2023-02-26T08:11:00;3.08;;;0.35;;
75048;SDS011;63803;53.120;8.764;2023-02-26T08:13:26;2.80;;;0.50;;
75048;SDS011;63803;53.120;8.764;2023-02-26T08:15:51;4.85;;;0.65;;
75048;SDS011;63803;53.120;8.764;2023-02-26T08:18:17;2.78;;;0.47;;
75048;SDS011;63803;53.120;8.764;2023-02-26T08:20:43;4.13;;;0.70;;
75048;SDS011;63803;53.120;8.764;2023-02-26T08:23:08;7.82;;;0.75;;
75048;SDS011;63803;53.120;8.764;2023-02-26T08:25:34;3.38;;;0.57;;
75048;SDS011;63803;53.120;8.764;2023-02-26T08:28:02;5.68;;;0.90;;
75048;SDS011;63803;53.120;8.764;2023-02-26T08:30:28;2.30;;;0.47;;
75048;SDS011;63803;53.120;8.764;2023-02-26T08:32:54;6.90;;;1.08;;
75048;SDS011;63803;53.120;8.764;2023-02-26T08:35:19;2.30;;;0.80;;
75048;SDS011;63803;53.120;8.764;2023-02-26T08:37:45;5.75;;;1.58;;
75048;SDS011;63803;53.120;8.764;2023-02-26T08:40:11;7.25;;;0.90;;
75048;SDS011;63803;53.120;8.764;2023-02-26T08:42:37;4.53;;;1.05;;
75048;SDS011;63803;53.120;8.764;2023-02-26T08:45:02;5.07;;;0.65;;
75048;SDS011;63803;53.120;8.764;2023-02-26T08:47:28;4.05;;;0.65;;
75048;SDS011;63803;53.120;8.764;2023-02-26T08:49:53;8.90;;;0.80;;
75048;SDS011;63803;53.120;8.764;2023-02-26T08:52:19;1.48;;;0.35;;
75048;SDS011;63803;53.120;8.764;2023-02-26T08:54:45;2.53;;;0.60;;
75048;SDS011;63803;53.120;8.764;2023-02-26T08:57:11;2.35;;;0.60;;
75048;SDS011;63803;53.120;8.764;2023-02-26T08:59:36;1.40;;;0.40;;
75048;SDS011;63803;53.120;8.764;2023-02-26T09:02:02;5.30;;;0.50;;
75048;SDS011;63803;53.120;8.764;2023-02-26T09:04:27;2.55;;;0.52;;
75048;SDS011;63803;53.120;8.764;2023-02-26T09:06:53;3.28;;;0.50;;
75048;SDS011;63803;53.120;8.764;2023-02-26T09:09:19;4.97;;;0.65;;
75048;SDS011;63803;53.120;8.764;2023-02-26T09:11:45;1.25;;;0.52;;
75048;SDS011;63803;53.120;8.764;2023-02-26T09:14:10;1.58;;;0.65;;
75048;SDS011;63803;53.120;8.764;2023-02-26T09:16:36;4.45;;;0.70;;
75048;SDS011;63803;53.120;8.764;2023-02-26T09:19:03;0.50;;;0.32;;
75048;SDS011;63803;53.120;8.764;2023-02-26T09:21:29;3.13;;;0.52;;
75048;SDS011;63803;53.120;8.764;2023-02-26T09:23:55;2.40;;;0.50;;
75048;SDS011;63803;53.120;8.764;2023-02-26T09:26:20;2.47;;;0.52;;
75048;SDS011;63803;53.120;8.764;2023-02-26T09:28:46;1.52;;;0.35;;
75048;SDS011;63803;53.120;8.764;2023-02-26T09:31:11;2.05;;;0.60;;
75048;SDS011;63803;53.120;8.764;2023-02-26T09:33:37;4.13;;;0.73;;
75048;SDS011;63803;53.120;8.764;2023-02-26T09:36:02;0.73;;;0.60;;
75048;SDS011;63803;53.120;8.764;2023-02-26T09:38:28;2.15;;;0.70;;
75048;SDS011;63803;53.120;8.764;2023-02-26T09:40:57;4.45;;;0.52;;
75048;SDS011;63803;53.120;8.764;2023-02-26T09:46:05;1.23;;;0.40;;
75048;SDS011;63803;53.120;8.764;2023-02-26T09:48:58;2.28;;;0.68;;
75048;SDS011;63803;53.120;8.764;2023-02-26T09:51:51;2.28;;;0.40;;
75048;SDS011;63803;53.120;8.764;2023-02-26T09:54:21;5.90;;;1.63;;
75048;SDS011;63803;53.120;8.764;2023-02-26T09:56:49;1.27;;;0.68;;
75048;SDS011;63803;53.120;8.764;2023-02-26T09:59:16;1.25;;;0.63;;
75048;SDS011;63803;53.120;8.764;2023-02-26T10:09:46;0.98;;;0.50;;
75048;SDS011;63803;53.120;8.764;2023-02-26T10:12:24;1.02;;;0.57;;
75048;SDS011;63803;53.120;8.764;2023-02-26T10:17:41;0.77;;;0.50;;
75048;SDS011;63803;53.120;8.764;2023-02-26T10:23:11;5.22;;;0.40;;
75048;SDS011;63803;53.120;8.764;2023-02-26T10:25:53;2.92;;;0.70;;
75048;SDS011;63803;53.120;8.764;2023-02-26T10:40:15;8.55;;;0.52;;
75048;SDS011;63803;53.120;8.764;2023-02-26T10:42:49;0.63;;;0.38;;
75048;SDS011;63803;53.120;8.764;2023-02-26T10:48:30;1.80;;;0.60;;
75048;SDS011;63803;53.120;8.764;2023-02-26T10:50:58;1.17;;;0.35;;
75048;SDS011;63803;53.120;8.764;2023-02-26T10:53:29;6.32;;;1.25;;
75048;SDS011;63803;53.120;8.764;2023-02-26T10:56:00;4.07;;;0.85;;
75048;SDS011;63803;53.120;8.764;2023-02-26T10:58:31;5.30;;;0.90;;
75048;SDS011;63803;53.120;8.764;2023-02-26T11:00:56;4.20;;;0.98;;
75048;SDS011;63803;53.120;8.764;2023-02-26T11:03:32;6.40;;;1.20;;
75048;SDS011;63803;53.120;8.764;2023-02-26T11:06:01;7.53;;;0.90;;
75048;SDS011;63803;53.120;8.764;2023-02-26T11:08:31;2.35;;;0.77;;
75048;SDS011;63803;53.120;8.764;2023-02-26T11:11:02;2.78;;;0.90;;
75048;SDS011;63803;53.120;8.764;2023-02-26T11:13:30;4.68;;;1.00;;
75048;SDS011;63803;53.120;8.764;2023-02-26T11:16:00;9.43;;;0.75;;
75048;SDS011;63803;53.120;8.764;2023-02-26T11:18:30;5.63;;;0.82;;
75048;SDS011;63803;53.120;8.764;2023-02-26T11:21:03;3.97;;;1.00;;
75048;SDS011;63803;53.120;8.764;2023-02-26T11:23:30;6.80;;;0.90;;
75048;SDS011;63803;53.120;8.764;2023-02-26T11:26:07;3.97;;;0.98;;
75048;SDS011;63803;53.120;8.764;2023-02-26T11:28:45;3.95;;;0.90;;
75048;SDS011;63803;53.120;8.764;2023-02-26T11:31:14;3.63;;;0.77;;
75048;SDS011;63803;53.120;8.764;2023-02-26T11:34:01;4.47;;;1.58;;
75048;SDS011;63803;53.120;8.764;2023-02-26T11:36:30;5.32;;;0.88;;
75048;SDS011;63803;53.120;8.764;2023-02-26T11:38:57;4.72;;;0.70;;
75048;SDS011;63803;53.120;8.764;2023-02-26T11:41:27;3.78;;;1.20;;
75048;SDS011;63803;53.120;8.764;2023-02-26T11:44:00;2.88;;;0.75;;
75048;SDS011;63803;53.120;8.764;2023-02-26T11:46:29;1.55;;;0.63;;
75048;SDS011;63803;53.120;8.764;2023-02-26T11:48:56;4.55;;;0.82;;
75048;SDS011;63803;53.120;8.764;2023-02-26T11:51:24;5.53;;;0.82;;
75048;SDS011;63803;53.120;8.764;2023-02-26T11:53:53;3.20;;;0.70;;
75048;SDS011;63803;53.120;8.764;2023-02-26T11:56:40;5.72;;;1.00;;
75048;SDS011;63803;53.120;8.764;2023-02-26T11:59:16;5.38;;;0.75;;
75048;SDS011;63803;53.120;8.764;2023-02-26T12:01:42;2.28;;;0.60;;
75048;SDS011;63803;53.120;8.764;2023-02-26T12:04:08;2.33;;;0.55;;
75048;SDS011;63803;53.120;8.764;2023-02-26T12:06:36;4.15;;;0.80;;
75048;SDS011;63803;53.120;8.764;2023-02-26T12:09:02;1.80;;;0.80;;
75048;SDS011;63803;53.120;8.764;2023-02-26T12:14:15;5.13;;;0.80;;
75048;SDS011;63803;53.120;8.764;2023-02-26T12:22:20;6.63;;;0.90;;
75048;SDS011;63803;53.120;8.764;2023-02-26T12:38:51;2.78;;;0.70;;
75048;SDS011;63803;53.120;8.764;2023-02-26T12:41:23;6.68;;;0.77;;
75048;SDS011;63803;53.120;8.764;2023-02-26T12:44:01;3.22;;;0.85;;
75048;SDS011;63803;53.120;8.764;2023-02-26T12:49:48;13.40;;;1.00;;
75048;SDS011;63803;53.120;8.764;2023-02-26T13:11:55;260.02;;;93.43;;
75048;SDS011;63803;53.120;8.764;2023-02-26T13:19:56;180.82;;;63.65;;
75048;SDS011;63803;53.120;8.764;2023-02-26T13:25:17;101.28;;;33.13;;
75048;SDS011;63803;53.120;8.764;2023-02-26T13:27:47;70.60;;;24.58;;
75048;SDS011;63803;53.120;8.764;2023-02-26T13:30:18;66.30;;;21.52;;
75048;SDS011;63803;53.120;8.764;2023-02-26T13:32:52;61.05;;;22.25;;
75048;SDS011;63803;53.120;8.764;2023-02-26T13:35:21;76.80;;;23.20;;
75048;SDS011;63803;53.120;8.764;2023-02-26T13:37:56;77.60;;;25.35;;
75048;SDS011;63803;53.120;8.764;2023-02-26T13:46:11;85.35;;;28.38;;
75048;SDS011;63803;53.120;8.764;2023-02-26T13:51:36;84.10;;;27.80;;
75048;SDS011;63803;53.120;8.764;2023-02-26T14:01:46;83.55;;;26.02;;
75048;SDS011;63803;53.120;8.764;2023-02-26T14:04:51;68.20;;;22.52;;
75048;SDS011;63803;53.120;8.764;2023-02-26T14:10:24;67.40;;;22.35;;
75048;SDS011;63803;53.120;8.764;2023-02-26T14:13:17;62.53;;;21.33;;
75048;SDS011;63803;53.120;8.764;2023-02-26T14:15:52;65.53;;;22.08;;
75048;SDS011;63803;53.120;8.764;2023-02-26T14:18:34;58.70;;;19.95;;
75048;SDS011;63803;53.120;8.764;2023-02-26T14:24:06;57.15;;;19.10;;
75048;SDS011;63803;53.120;8.764;2023-02-26T14:26:42;55.13;;;19.27;;
75048;SDS011;63803;53.120;8.764;2023-02-26T14:29:29;55.75;;;19.27;;
75048;SDS011;63803;53.120;8.764;2023-02-26T14:37:11;49.72;;;17.20;;
75048;SDS011;63803;53.120;8.764;2023-02-26T14:42:22;47.28;;;17.55;;
75048;SDS011;63803;53.120;8.764;2023-02-26T14:44:59;41.40;;;17.20;;
75048;SDS011;63803;53.120;8.764;2023-02-26T14:47:33;46.55;;;17.27;;
75048;SDS011;63803;53.120;8.764;2023-02-26T14:49:58;40.63;;;16.38;;
75048;SDS011;63803;53.120;8.764;2023-02-26T15:14:26;33.28;;;13.57;;
75048;SDS011;63803;53.120;8.764;2023-02-26T15:20:19;37.97;;;12.68;;
75048;SDS011;63803;53.120;8.764;2023-02-26T15:25:31;31.67;;;12.57;;
75048;SDS011;63803;53.120;8.764;2023-02-26T15:28:00;35.90;;;12.48;;
75048;SDS011;63803;53.120;8.764;2023-02-26T15:30:28;28.55;;;11.57;;
75048;SDS011;63803;53.120;8.764;2023-02-26T15:32:59;27.27;;;10.82;;
75048;SDS011;63803;53.120;8.764;2023-02-26T15:35:29;28.88;;;11.50;;
75048;SDS011;63803;53.120;8.764;2023-02-26T15:37:58;29.00;;;12.02;;
75048;SDS011;63803;53.120;8.764;2023-02-26T15:40:26;30.30;;;11.15;;
75048;SDS011;63803;53.120;8.764;2023-02-26T15:42:56;32.15;;;11.32;;
75048;SDS011;63803;53.120;8.764;2023-02-26T15:45:33;24.85;;;10.32;;
75048;SDS011;63803;53.120;8.764;2023-02-26T15:48:02;26.60;;;10.82;;
75048;SDS011;63803;53.120;8.764;2023-02-26T15:50:40;22.92;;;10.13;;
75048;SDS011;63803;53.120;8.764;2023-02-26T15:53:12;33.25;;;11.07;;
75048;SDS011;63803;53.120;8.764;2023-02-26T15:55:48;25.75;;;10.52;;
75048;SDS011;63803;53.120;8.764;2023-02-26T15:58:58;19.67;;;9.45;;
75048;SDS011;63803;53.120;8.764;2023-02-26T16:01:16;26.70;;;9.75;;
75048;SDS011;63803;53.120;8.764;2023-02-26T16:03:44;24.48;;;10.27;;
75048;SDS011;63803;53.120;8.764;2023-02-26T16:06:23;24.15;;;9.57;;
75048;SDS011;63803;53.120;8.764;2023-02-26T16:08:52;21.58;;;9.48;;
75048;SDS011;63803;53.120;8.764;2023-02-26T16:11:18;23.55;;;9.13;;
75048;SDS011;63803;53.120;8.764;2023-02-26T16:13:45;21.88;;;8.60;;
75048;SDS011;63803;53.120;8.764;2023-02-26T16:16:20;26.02;;;8.98;;
75048;SDS011;63803;53.120;8.764;2023-02-26T16:18:50;19.55;;;7.80;;
75048;SDS011;63803;53.120;8.764;2023-02-26T16:21:26;22.25;;;8.70;;
75048;SDS011;63803;53.120;8.764;2023-02-26T16:24:04;21.45;;;8.15;;
75048;SDS011;63803;53.120;8.764;2023-02-26T16:26:33;19.38;;;7.95;;
75048;SDS011;63803;53.120;8.764;2023-02-26T16:29:06;15.18;;;7.45;;
75048;SDS011;63803;53.120;8.764;2023-02-26T16:31:49;18.30;;;7.20;;
75048;SDS011;63803;53.120;8.764;2023-02-26T16:35:07;18.33;;;6.75;;
75048;SDS011;63803;53.120;8.764;2023-02-26T16:40:19;20.95;;;7.30;;
75048;SDS011;63803;53.120;8.764;2023-02-26T16:47:59;16.73;;;6.07;;
75048;SDS011;63803;53.120;8.764;2023-02-26T16:50:28;16.35;;;6.20;;
75048;SDS011;63803;53.120;8.764;2023-02-26T16:55:21;12.52;;;5.15;;
75048;SDS011;63803;53.120;8.764;2023-02-26T16:57:49;9.85;;;4.55;;
75048;SDS011;63803;53.120;8.764;2023-02-26T17:00:16;16.48;;;4.95;;
75048;SDS011;63803;53.120;8.764;2023-02-26T17:02:53;9.38;;;4.03;;
75048;SDS011;63803;53.120;8.764;2023-02-26T17:05:24;9.05;;;3.42;;
75048;SDS011;63803;53.120;8.764;2023-02-26T17:10:54;10.10;;;3.80;;
75048;SDS011;63803;53.120;8.764;2023-02-26T17:13:27;9.85;;;3.42;;
75048;SDS011;63803;53.120;8.764;2023-02-26T17:15:57;5.17;;;2.50;;
75048;SDS011;63803;53.120;8.764;2023-02-26T17:18:25;7.87;;;3.10;;
75048;SDS011;63803;53.120;8.764;2023-02-26T17:20:50;11.73;;;3.22;;
75048;SDS011;63803;53.120;8.764;2023-02-26T17:23:16;9.02;;;3.10;;
75048;SDS011;63803;53.120;8.764;2023-02-26T17:25:46;7.07;;;3.50;;
75048;SDS011;63803;53.120;8.764;2023-02-26T17:28:24;6.00;;;3.17;;
75048;SDS011;63803;53.120;8.764;2023-02-26T17:30:52;7.75;;;3.30;;
75048;SDS011;63803;53.120;8.764;2023-02-26T17:33:19;8.30;;;3.17;;
75048;SDS011;63803;53.120;8.764;2023-02-26T17:35:45;9.15;;;3.50;;
75048;SDS011;63803;53.120;8.764;2023-02-26T17:38:11;9.32;;;2.80;;
75048;SDS011;63803;53.120;8.764;2023-02-26T17:40:38;11.88;;;3.05;;
75048;SDS011;63803;53.120;8.764;2023-02-26T17:43:05;8.00;;;2.92;;
75048;SDS011;63803;53.120;8.764;2023-02-26T17:45:34;9.07;;;3.13;;
75048;SDS011;63803;53.120;8.764;2023-02-26T17:48:01;6.13;;;3.38;;
75048;SDS011;63803;53.120;8.764;2023-02-26T17:52:58;8.68;;;3.67;;
75048;SDS011;63803;53.120;8.764;2023-02-26T17:55:24;5.20;;;2.78;;
75048;SDS011;63803;53.120;8.764;2023-02-26T17:57:50;6.45;;;2.92;;
75048;SDS011;63803;53.120;8.764;2023-02-26T18:00:16;6.97;;;2.90;;
75048;SDS011;63803;53.120;8.764;2023-02-26T18:02:42;4.68;;;2.58;;
75048;SDS011;63803;53.120;8.764;2023-02-26T18:05:08;5.90;;;2.88;;
75048;SDS011;63803;53.120;8.764;2023-02-26T18:07:34;9.40;;;2.85;;
75048;SDS011;63803;53.120;8.764;2023-02-26T18:10:00;5.70;;;2.55;;
75048;SDS011;63803;53.120;8.764;2023-02-26T18:12:25;7.60;;;2.95;;
75048;SDS011;63803;53.120;8.764;2023-02-26T18:14:51;7.22;;;3.05;;
75048;SDS011;63803;53.120;8.764;2023-02-26T18:17:21;7.60;;;2.80;;
75048;SDS011;63803;53.120;8.764;2023-02-26T18:19:49;6.20;;;2.88;;
75048;SDS011;63803;53.120;8.764;2023-02-26T18:22:15;12.10;;;3.00;;
75048;SDS011;63803;53.120;8.764;2023-02-26T18:24:43;5.90;;;2.55;;
75048;SDS011;63803;53.120;8.764;2023-02-26T18:27:18;7.95;;;2.72;;
75048;SDS011;63803;53.120;8.764;2023-02-26T18:29:46;4.95;;;2.63;;